AGROMETEOROLOŠKI PORTAL

vinorodna pokrajina

Temelj dobrega kmetovanja

Pregled podatkov za lokacijo Šentrupert DRSI, meteorološka postaja 51

Pregled senzorjev na lokaciji

ID Ime Zadnja
vrednost
Datum in čas
meritve
(lokalni čas)
Tip
senzorja
6268 Zračni tlak (hPa) 989 hPa 4.10.2022 14:30 DRSI
6265 Relativna zračna vlaga (2 m) (% RH) 68 % RH 4.10.2022 14:30 DRSI
6264 Temperatura (2 m) (°C) 19 °C 4.10.2022 14:30 DRSI
6267 Smer vetra (2 m) (°) 203 ° 4.10.2022 14:30 DRSI
6266 Hitrost vetra (2 m) (km/h) 4 km/h 4.10.2022 14:30 DRSI

Pregled podatkov zadnjih 24 ur

Zap.
št.
Datum in čas
(lokalni čas)
Šentrupert DRSI
Zračni
tlak
Relativna
zračna
vlaga
(2
m)
Temperatura
(2
m)
Smer
vetra
(2
m)
Hitrost
vetra
(2
m)
1 4.10.2022 14:30 988,5 68 19 202,5 4,3
2 4.10.2022 14:00 988,5 71 18,7 180 4
3 4.10.2022 13:30 989,2 69,7 18,3 202,5 2,3
4 4.10.2022 13:00 989,5 73 17,7 202,5 4,9
5 4.10.2022 12:30 989,5 75,7 16,3 194,6 4,3
6 4.10.2022 12:00 989,5 80,7 16 180 3
7 4.10.2022 11:30 990,5 83,7 15 180 3
8 4.10.2022 11:00 990,5 83 14,7 180 1,3
9 4.10.2022 10:30 990,5 76,3 13 0 1,3
10 4.10.2022 10:00 990,5 34 12 112,5 1,7
11 4.10.2022 09:30 990,5 9,7 22,3 3
12 4.10.2022 09:00 990,5 8,7 14,6 3
13 4.10.2022 08:30 990,5 7,3 348,5 1,3
14 4.10.2022 08:00 990,5 6 3,2
15 4.10.2022 07:30 990,5 6 11 2,6
16 4.10.2022 07:00 990,5 6 11 3,6
17 4.10.2022 06:30 989,5 6 33,5 1,9
18 4.10.2022 06:00 990,1 6 14,7 2,3
19 4.10.2022 05:30 989,5 6 37,4 2,3
20 4.10.2022 05:00 989,8 6,7 37,4 3
21 4.10.2022 04:30 989,8 7 11 0,7
22 4.10.2022 04:00 989,5 7 11 4
23 4.10.2022 03:30 990,5 7 22 1
24 4.10.2022 03:00 990,5 7,7 37,4 2,3
25 4.10.2022 02:30 990,5 8 0 2,3
26 4.10.2022 02:00 990,5 8 348,5 1,3
27 4.10.2022 01:30 990,1 9 14,7 2,3
28 4.10.2022 01:00 989,5 9 30,4 3,6
29 4.10.2022 00:30 989,5 9 1,3
30 4.10.2022 00:00 989,5 10 14,7 4,3
31 3.10.2022 23:30 989,5 10 30,4 3
32 3.10.2022 23:00 989,5 10 14,7 1,1
33 3.10.2022 22:30 989,5 10,3 22 2,3
34 3.10.2022 22:00 989,5 11 101 1,7
35 3.10.2022 21:30 989,5 15 11 22 4,3
36 3.10.2022 21:00 988,5 23 12 29,6 2,6
37 3.10.2022 20:30 988,5 43,7 12,3 29,6 3,2
38 3.10.2022 20:00 988,2 65 14 11 1,7
39 3.10.2022 19:30 987,6 84 15 180 1,3
40 3.10.2022 19:00 986,9 85 16 180 4,9
41 3.10.2022 18:30 986,6 82 17 225 6,2
42 3.10.2022 18:00 985,6 69,7 19 180 10
43 3.10.2022 17:30 985,6 65,3 20 210,4 10,9
44 3.10.2022 17:00 985,6 51,3 20,7 225 5,3
45 3.10.2022 16:30 985,6 48 21,7 180 3,2
46 3.10.2022 16:00 985,6 45,7 22 320,8 2